createdAt,value
2017-11-14T00:00:38.746Z,97293.56
2017-11-14T00:03:04.837Z,97298.80
2017-11-14T00:05:30.900Z,97296.42
2017-11-14T00:07:57.294Z,97294.23
2017-11-14T00:10:23.956Z,97296.42
2017-11-14T00:12:50.062Z,97301.75
2017-11-14T00:15:16.180Z,97298.69
2017-11-14T00:17:42.286Z,97301.21
2017-11-14T00:20:08.756Z,97297.03
2017-11-14T00:22:35.126Z,97296.72
2017-11-14T00:25:01.256Z,97301.09
2017-11-14T00:27:27.361Z,97308.78
2017-11-14T00:29:53.464Z,97302.60
2017-11-14T00:32:20.211Z,97305.81
2017-11-14T00:34:46.368Z,97308.83
2017-11-14T00:37:12.476Z,97312.85
2017-11-14T00:39:38.570Z,97324.38
2017-11-14T00:42:04.764Z,97322.83
2017-11-14T00:44:31.242Z,97332.92
2017-11-14T00:46:57.486Z,97331.45
2017-11-14T00:49:23.693Z,97322.88
2017-11-14T00:51:49.850Z,97324.75
2017-11-14T00:54:16.000Z,97333.66
2017-11-14T00:56:42.553Z,97342.27
2017-11-14T00:59:08.661Z,97340.78
2017-11-14T01:01:34.766Z,97342.44
2017-11-14T01:04:01.802Z,97350.78
2017-11-14T01:06:27.923Z,97349.32
2017-11-14T01:08:54.602Z,97361.84
2017-11-14T01:11:20.799Z,97361.25
2017-11-14T01:13:46.966Z,97354.36
2017-11-14T01:16:13.084Z,97357.44
2017-11-14T01:18:39.213Z,97355.94
2017-11-14T01:21:05.814Z,97358.73
2017-11-14T01:23:31.952Z,97360.44
2017-11-14T01:25:58.696Z,97356.14
2017-11-14T01:28:24.816Z,97359.23
2017-11-14T01:30:50.944Z,97355.98
2017-11-14T01:33:17.449Z,97357.64
2017-11-14T01:35:43.746Z,97351.81
2017-11-14T01:38:09.883Z,97348.34
2017-11-14T01:40:36.171Z,97344.17
2017-11-14T01:43:02.276Z,97348.70
2017-11-14T01:45:29.589Z,97354.14
2017-11-14T01:47:55.707Z,97366.58
2017-11-14T01:50:21.847Z,97359.56
2017-11-14T01:52:48.098Z,97362.04
2017-11-14T01:55:14.588Z,97358.03
2017-11-14T01:57:41.166Z,97355.64
2017-11-14T02:00:07.432Z,97361.67
2017-11-14T02:02:33.588Z,97348.98
2017-11-14T02:04:59.857Z,97359.23
2017-11-14T02:07:26.020Z,97362.78
2017-11-14T02:09:52.101Z,97355.83
2017-11-14T02:12:18.268Z,97364.59
2017-11-14T02:14:44.375Z,97374.05
2017-11-14T02:17:10.531Z,97378.63
2017-11-14T02:19:36.684Z,97379.90
2017-11-14T02:22:03.199Z,97377.09
2017-11-14T02:24:29.263Z,97392.08
2017-11-14T02:27:00.308Z,97409.37
2017-11-14T02:29:26.379Z,97416.65
2017-11-14T02:31:52.496Z,97405.97
2017-11-14T02:34:18.942Z,97409.00
2017-11-14T02:36:45.260Z,97408.16
2017-11-14T02:39:11.628Z,97400.77
2017-11-14T02:41:37.744Z,97403.83
2017-11-14T02:44:03.816Z,97405.48
2017-11-14T02:46:30.275Z,97401.76
2017-11-14T02:48:56.728Z,97404.21
2017-11-14T02:51:22.905Z,97405.88
2017-11-14T02:53:48.979Z,97407.05
2017-11-14T02:56:15.142Z,97414.28
2017-11-14T02:58:41.728Z,97416.57
2017-11-14T03:01:07.956Z,97421.98
2017-11-14T03:03:34.518Z,97429.44
2017-11-14T03:06:00.677Z,97428.56
2017-11-14T03:08:26.816Z,97425.47
2017-11-14T03:10:53.363Z,97427.19
2017-11-14T03:13:19.495Z,97421.55
2017-11-14T03:15:45.702Z,97420.36
2017-11-14T03:18:11.967Z,97429.61
2017-11-14T03:20:38.136Z,97428.48
2017-11-14T03:23:04.716Z,97437.84
2017-11-14T03:25:30.874Z,97437.53
2017-11-14T03:27:56.989Z,97436.31
2017-11-14T03:30:23.081Z,97442.97
2017-11-14T03:32:49.147Z,97452.45
2017-11-14T03:35:15.559Z,97459.34
2017-11-14T03:37:41.608Z,97456.39
2017-11-14T03:40:07.676Z,97452.81
2017-11-14T03:42:34.199Z,97465.14
2017-11-14T03:45:00.305Z,97461.83
2017-11-14T03:47:26.387Z,97470.03
2017-11-14T03:49:52.488Z,97474.20
2017-11-14T03:52:18.560Z,97478.79
2017-11-14T03:54:44.972Z,97484.38
2017-11-14T03:57:11.079Z,97480.42
2017-11-14T03:59:37.249Z,97479.98
2017-11-14T04:02:03.380Z,97475.91
2017-11-14T04:04:29.456Z,97477.26
2017-11-14T04:06:55.967Z,97485.85
2017-11-14T04:09:22.173Z,97488.05
2017-11-14T04:11:48.236Z,97487.38
2017-11-14T04:14:14.463Z,97490.01
2017-11-14T04:16:40.508Z,97498.52
2017-11-14T04:19:06.955Z,97503.83
2017-11-14T04:21:33.052Z,97501.06
2017-11-14T04:23:59.135Z,97503.80
2017-11-14T04:26:25.223Z,97507.50
2017-11-14T04:28:51.317Z,97506.11
2017-11-14T04:31:17.801Z,97503.63
2017-11-14T04:33:43.956Z,97500.18
2017-11-14T04:36:10.135Z,97504.98
2017-11-14T04:38:36.223Z,97501.80
2017-11-14T04:41:02.305Z,97512.20
2017-11-14T04:43:29.009Z,97518.66
2017-11-14T04:45:55.154Z,97519.17
2017-11-14T04:48:21.311Z,97518.13
2017-11-14T04:50:47.539Z,97522.50
2017-11-14T04:53:13.735Z,97524.80
2017-11-14T04:55:40.299Z,97528.12
2017-11-14T04:58:06.590Z,97532.05
2017-11-14T05:00:32.699Z,97528.41
2017-11-14T05:02:58.795Z,97515.11
2017-11-14T05:05:24.853Z,97527.85
2017-11-14T05:07:51.306Z,97527.08
2017-11-14T05:10:17.401Z,97532.20
2017-11-14T05:12:43.526Z,97523.37
2017-11-14T05:15:09.695Z,97541.30
2017-11-14T05:17:38.283Z,97547.83
2017-11-14T05:20:06.071Z,97548.82
2017-11-14T05:22:32.188Z,97553.57
2017-11-14T05:24:58.256Z,97550.95
2017-11-14T05:27:24.362Z,97558.29
2017-11-14T05:29:50.680Z,97560.52
2017-11-14T05:32:17.146Z,97567.22
2017-11-14T05:34:43.359Z,97564.02
2017-11-14T05:37:09.652Z,97573.72
2017-11-14T05:39:36.133Z,97574.11
2017-11-14T05:42:02.402Z,97575.92
2017-11-14T05:44:28.514Z,97571.91
2017-11-14T05:46:54.727Z,97572.09
2017-11-14T05:49:20.867Z,97576.45
2017-11-14T05:51:47.534Z,97573.88
2017-11-14T05:54:13.649Z,97575.64
2017-11-14T05:56:39.789Z,97569.27
2017-11-14T05:59:05.969Z,97571.08
2017-11-14T06:01:32.224Z,97571.58
2017-11-14T06:03:58.845Z,97578.74
2017-11-14T06:06:24.948Z,97585.01
2017-11-14T06:08:51.158Z,97590.84
2017-11-14T06:11:17.268Z,97587.16
2017-11-14T06:13:43.392Z,97588.36
2017-11-14T06:16:10.515Z,97586.88
2017-11-14T06:18:36.736Z,97595.53
2017-11-14T06:21:02.947Z,97593.89
2017-11-14T06:23:29.105Z,97592.59
2017-11-14T06:25:55.272Z,97588.76
2017-11-14T06:28:21.834Z,97597.06
2017-11-14T06:30:48.073Z,97604.45
2017-11-14T06:33:14.254Z,97607.34
2017-11-14T06:35:40.421Z,97612.58
2017-11-14T06:38:06.612Z,97607.55
2017-11-14T06:40:33.089Z,97608.74
2017-11-14T06:42:59.261Z,97615.19
2017-11-14T06:45:25.425Z,97613.11
2017-11-14T06:47:52.170Z,97625.55
2017-11-14T06:50:18.288Z,97624.74
2017-11-14T06:52:44.418Z,97628.83
2017-11-14T06:55:10.625Z,97634.47
2017-11-14T06:57:37.127Z,97645.83
2017-11-14T07:00:03.905Z,97642.31
2017-11-14T07:02:30.096Z,97647.87
2017-11-14T07:04:56.328Z,97652.28
2017-11-14T07:07:23.338Z,97653.61
2017-11-14T07:09:49.649Z,97663.22
2017-11-14T07:12:16.053Z,97685.86
2017-11-14T07:14:42.396Z,97664.38
2017-11-14T07:17:09.350Z,97673.11
2017-11-14T07:19:36.140Z,97666.05
2017-11-14T07:22:02.547Z,97671.08
2017-11-14T07:24:28.881Z,97671.99
2017-11-14T07:26:55.918Z,97665.94
2017-11-14T07:29:22.495Z,97669.33
2017-11-14T07:31:48.813Z,97666.67
2017-11-14T07:34:15.104Z,97669.30
2017-11-14T07:36:41.505Z,97664.06
2017-11-14T07:39:10.573Z,97666.02
2017-11-14T07:41:37.190Z,97659.05
2017-11-14T07:44:03.655Z,97663.69
2017-11-14T07:46:29.941Z,97667.48
2017-11-14T07:48:56.274Z,97668.53
2017-11-14T07:51:22.934Z,97662.93
2017-11-14T07:53:49.179Z,97670.73
2017-11-14T07:56:15.432Z,97669.73
2017-11-14T07:58:41.673Z,97669.14
2017-11-14T08:01:08.160Z,97666.30
2017-11-14T08:03:35.593Z,97664.33
2017-11-14T08:06:02.101Z,97663.00
2017-11-14T08:08:28.361Z,97675.48
2017-11-14T08:10:54.537Z,97677.13
2017-11-14T08:13:20.762Z,97673.27
2017-11-14T08:15:47.727Z,97677.25
2017-11-14T08:18:14.035Z,97672.84
2017-11-14T08:20:40.249Z,97682.22
2017-11-14T08:23:06.450Z,97687.56
2017-11-14T08:25:32.631Z,97688.89
2017-11-14T08:27:59.254Z,97695.34
2017-11-14T08:30:26.465Z,97693.89
2017-11-14T08:32:52.612Z,97696.06
2017-11-14T08:35:18.797Z,97695.27
2017-11-14T08:37:44.984Z,97691.81
2017-11-14T08:40:11.624Z,97689.08
2017-11-14T08:42:38.182Z,97690.59
2017-11-14T08:45:05.623Z,97693.16
2017-11-14T08:47:31.926Z,97682.53
2017-11-14T08:49:58.094Z,97686.08
2017-11-14T08:52:24.560Z,97688.70
2017-11-14T08:54:50.777Z,97683.23
2017-11-14T08:57:16.979Z,97685.39
2017-11-14T08:59:43.467Z,97686.22
2017-11-14T09:02:09.626Z,97690.97
2017-11-14T09:04:35.768Z,97696.67
2017-11-14T09:07:02.330Z,97684.78
2017-11-14T09:09:28.439Z,97694.97
2017-11-14T09:11:54.966Z,97699.19
2017-11-14T09:14:21.113Z,97707.22
2017-11-14T09:16:47.246Z,97709.03
2017-11-14T09:19:13.685Z,97709.81
2017-11-14T09:21:39.872Z,97706.09
2017-11-14T09:24:05.985Z,97708.88
2017-11-14T09:26:32.175Z,97711.43
2017-11-14T09:28:58.347Z,97719.47
2017-11-14T09:31:24.834Z,97721.00
2017-11-14T09:33:50.935Z,97718.93
2017-11-14T09:36:17.061Z,97725.62
2017-11-14T09:38:43.882Z,97730.36
2017-11-14T09:41:10.131Z,97720.45
2017-11-14T09:43:36.243Z,97722.19
2017-11-14T09:46:02.807Z,97725.95
2017-11-14T09:48:28.982Z,97719.44
2017-11-14T09:50:55.132Z,97710.62
2017-11-14T09:53:21.332Z,97720.98
2017-11-14T09:55:47.480Z,97710.83
2017-11-14T09:58:13.940Z,97717.48
2017-11-14T10:00:39.984Z,97714.90
2017-11-14T10:03:06.058Z,97723.67
2017-11-14T10:05:32.181Z,97713.09
2017-11-14T10:07:58.236Z,97701.50
2017-11-14T10:10:24.773Z,97701.03
2017-11-14T10:12:50.942Z,97704.91
2017-11-14T10:15:17.240Z,97706.80
2017-11-14T10:17:43.372Z,97704.77
2017-11-14T10:20:09.434Z,97697.55
2017-11-14T10:22:35.818Z,97702.45
2017-11-14T10:25:01.954Z,97707.36
2017-11-14T10:27:28.174Z,97708.88
2017-11-14T10:29:54.306Z,97703.40
2017-11-14T10:32:20.468Z,97701.02
2017-11-14T10:34:46.907Z,97704.99
2017-11-14T10:37:12.938Z,97699.78
2017-11-14T10:39:39.008Z,97699.20
2017-11-14T10:42:05.406Z,97701.59
2017-11-14T10:44:31.578Z,97704.80
2017-11-14T10:46:58.462Z,97702.72
2017-11-14T10:49:24.566Z,97704.81
2017-11-14T10:51:50.655Z,97714.73
2017-11-14T10:54:17.156Z,97702.59
2017-11-14T10:56:43.293Z,97710.47
2017-11-14T10:59:09.423Z,97704.99
2017-11-14T11:01:35.509Z,97709.44
2017-11-14T11:04:01.564Z,97691.82
2017-11-14T11:06:28.078Z,97703.72
2017-11-14T11:08:54.157Z,97700.13
2017-11-14T11:11:20.304Z,97697.39
2017-11-14T11:13:46.501Z,97686.91
2017-11-14T11:16:12.778Z,97689.55
2017-11-14T11:18:39.330Z,97688.52
2017-11-14T11:21:05.384Z,97684.18
2017-11-14T11:23:31.455Z,97686.76
2017-11-14T11:25:57.581Z,97681.66
2017-11-14T11:28:23.648Z,97683.44
2017-11-14T11:30:50.133Z,97685.85
2017-11-14T11:33:16.371Z,97678.94
2017-11-14T11:35:42.504Z,97686.27
2017-11-14T11:38:09.070Z,97683.37
2017-11-14T11:40:35.213Z,97686.27
2017-11-14T11:43:01.999Z,97686.34
2017-11-14T11:45:28.141Z,97675.87
2017-11-14T11:47:54.195Z,97672.47
2017-11-14T11:50:20.283Z,97669.09
2017-11-14T11:52:46.365Z,97668.97
2017-11-14T11:55:12.786Z,97662.56
2017-11-14T11:57:38.856Z,97670.08
2017-11-14T12:00:04.959Z,97671.14
2017-11-14T12:02:31.105Z,97673.19
2017-11-14T12:04:57.233Z,97680.98
2017-11-14T12:07:23.739Z,97680.10
2017-11-14T12:09:49.828Z,97675.60
2017-11-14T12:12:15.919Z,97680.06
2017-11-14T12:14:42.048Z,97671.41
2017-11-14T12:17:08.280Z,97676.18
2017-11-14T12:19:34.788Z,97674.23
2017-11-14T12:22:00.798Z,97672.98
2017-11-14T12:24:26.952Z,97659.81
2017-11-14T12:26:53.557Z,97662.44
2017-11-14T12:29:19.639Z,97656.80
2017-11-14T12:31:45.701Z,97654.05
2017-11-14T12:34:11.754Z,97653.47
2017-11-14T12:36:37.940Z,97649.73
2017-11-14T12:39:04.498Z,97645.63
2017-11-14T12:41:30.627Z,97642.23
2017-11-14T12:43:56.776Z,97648.78
2017-11-14T12:46:22.895Z,97647.12
2017-11-14T12:48:49.004Z,97656.30
2017-11-14T12:51:15.489Z,97649.61
2017-11-14T12:53:41.871Z,97646.69
2017-11-14T12:56:07.973Z,97644.80
2017-11-14T12:58:34.094Z,97639.55
2017-11-14T13:01:00.203Z,97638.52
2017-11-14T13:03:26.633Z,97647.17
2017-11-14T13:05:52.732Z,97646.55
2017-11-14T13:08:18.841Z,97648.03
2017-11-14T13:10:45.341Z,97648.67
2017-11-14T13:13:11.526Z,97654.78
2017-11-14T13:15:37.625Z,97654.11
2017-11-14T13:18:04.134Z,97646.50
2017-11-14T13:20:30.263Z,97658.30
2017-11-14T13:22:56.380Z,97660.98
2017-11-14T13:25:22.828Z,97661.89
2017-11-14T13:27:48.912Z,97671.01
2017-11-14T13:30:14.953Z,97665.69
2017-11-14T13:32:41.004Z,97667.73
2017-11-14T13:35:07.124Z,97661.87
2017-11-14T13:37:33.619Z,97664.89
2017-11-14T13:39:59.695Z,97669.75
2017-11-14T13:42:25.795Z,97670.75
2017-11-14T13:44:51.906Z,97672.95
2017-11-14T13:47:18.119Z,97660.19
2017-11-14T13:49:44.648Z,97668.78
2017-11-14T13:52:10.811Z,97662.32
2017-11-14T13:54:36.938Z,97663.46
2017-11-14T13:57:03.141Z,97669.70
2017-11-14T13:59:29.225Z,97668.27
2017-11-14T14:01:55.657Z,97664.59
2017-11-14T14:04:21.757Z,97662.02
2017-11-14T14:06:47.853Z,97661.87
2017-11-14T14:09:14.482Z,97667.21
2017-11-14T14:11:40.703Z,97670.31
2017-11-14T14:14:07.171Z,97674.20
2017-11-14T14:16:33.618Z,97672.36
2017-11-14T14:18:59.705Z,97661.05
2017-11-14T14:21:25.837Z,97668.25
2017-11-14T14:23:52.379Z,97672.45
2017-11-14T14:26:18.533Z,97667.99
2017-11-14T14:28:44.685Z,97677.03
2017-11-14T14:31:10.774Z,97675.98
2017-11-14T14:33:36.888Z,97677.56
2017-11-14T14:36:03.369Z,97680.30
2017-11-14T14:38:29.463Z,97680.16
2017-11-14T14:40:55.746Z,97679.34
2017-11-14T14:43:21.937Z,97684.30
2017-11-14T14:45:48.084Z,97687.80
2017-11-14T14:48:17.804Z,97694.79
2017-11-14T14:50:44.202Z,97685.45
2017-11-14T14:53:10.491Z,97691.70
2017-11-14T14:55:36.845Z,97691.27
2017-11-14T14:58:03.037Z,97691.22
2017-11-14T15:00:29.767Z,97689.50
2017-11-14T15:02:56.979Z,97690.93
2017-11-14T15:05:23.222Z,97693.22
2017-11-14T15:07:49.529Z,97687.50
2017-11-14T15:10:15.957Z,97692.05
2017-11-14T15:12:42.749Z,97688.78
2017-11-14T15:15:09.036Z,97686.94
2017-11-14T15:17:35.363Z,97688.48
2017-11-14T15:20:01.859Z,97688.66
2017-11-14T15:22:28.259Z,97680.73
2017-11-14T15:24:54.904Z,97682.91
2017-11-14T15:27:21.287Z,97678.70
2017-11-14T15:29:54.693Z,97678.31
2017-11-14T15:32:21.069Z,97685.13
2017-11-14T15:34:48.563Z,97676.56
2017-11-14T15:37:14.874Z,97674.52
2017-11-14T15:39:41.221Z,97678.83
2017-11-14T15:42:07.949Z,97680.52
2017-11-14T15:44:34.236Z,97679.30
2017-11-14T15:47:00.505Z,97674.56
2017-11-14T15:49:27.162Z,97679.30
2017-11-14T15:51:53.366Z,97677.88
2017-11-14T15:54:19.646Z,97674.98
2017-11-14T15:56:45.834Z,97676.42
2017-11-14T15:59:12.216Z,97681.14
2017-11-14T16:01:38.798Z,97682.38
2017-11-14T16:04:05.068Z,97683.02
2017-11-14T16:06:31.227Z,97688.09
2017-11-14T16:08:57.699Z,97692.18
2017-11-14T16:11:23.991Z,97697.77
2017-11-14T16:13:50.508Z,97702.02
2017-11-14T16:16:17.466Z,97702.51
2017-11-14T16:18:43.711Z,97704.89
2017-11-14T16:21:09.946Z,97707.40
2017-11-14T16:23:36.194Z,97711.19
2017-11-14T16:26:02.882Z,97714.05
2017-11-14T16:28:29.168Z,97715.80
2017-11-14T16:30:56.093Z,97718.22
2017-11-14T16:33:22.462Z,97725.09
2017-11-14T16:35:48.954Z,97721.86
2017-11-14T16:38:15.497Z,97727.22
2017-11-14T16:40:41.626Z,97728.50
2017-11-14T16:43:07.829Z,97731.23
2017-11-14T16:48:07.287Z,97740.61
2017-11-14T16:50:33.918Z,97744.92
2017-11-14T16:53:00.135Z,97746.26
2017-11-14T16:55:26.367Z,97740.56
2017-11-14T16:57:52.616Z,97746.33
2017-11-14T17:00:18.744Z,97752.55
2017-11-14T17:02:45.425Z,97750.95
2017-11-14T17:05:11.668Z,97752.78
2017-11-14T17:07:37.908Z,97750.58
2017-11-14T17:10:04.826Z,97751.06
2017-11-14T17:12:31.082Z,97752.06
2017-11-14T17:14:57.336Z,97746.45
2017-11-14T17:17:23.576Z,97745.99
2017-11-14T17:19:49.759Z,97746.81
2017-11-14T17:22:16.388Z,97755.58
2017-11-14T17:24:42.681Z,97750.91
2017-11-14T17:27:09.389Z,97749.89
2017-11-14T17:29:39.888Z,97758.95
2017-11-14T17:32:06.239Z,97762.80
2017-11-14T17:34:32.819Z,97760.41
2017-11-14T17:36:59.183Z,97753.44
2017-11-14T17:39:25.470Z,97758.79
2017-11-14T17:41:52.065Z,97762.75
2017-11-14T17:44:18.341Z,97762.70
2017-11-14T17:46:44.555Z,97763.27
2017-11-14T17:49:11.254Z,97764.10
2017-11-14T17:51:37.528Z,97769.86
2017-11-14T17:54:03.696Z,97780.56
2017-11-14T17:56:30.293Z,97778.70
2017-11-14T17:58:57.078Z,97785.37
2017-11-14T18:01:23.261Z,97793.50
2017-11-14T18:03:49.438Z,97786.72
2017-11-14T18:06:15.586Z,97794.38
2017-11-14T18:08:42.390Z,97793.83
2017-11-14T18:11:08.873Z,97796.75
2017-11-14T18:13:41.576Z,97799.40
2017-11-14T18:16:09.138Z,97801.88
2017-11-14T18:18:35.531Z,97808.91
2017-11-14T18:21:01.795Z,97810.58
2017-11-14T18:23:29.087Z,97808.45
2017-11-14T18:25:56.494Z,97786.84
2017-11-14T18:28:23.326Z,97813.81
2017-11-14T18:30:49.718Z,97813.47
2017-11-14T18:33:16.581Z,97813.11
2017-11-14T18:35:43.263Z,97820.80
2017-11-14T18:38:09.520Z,97821.91
2017-11-14T18:40:36.138Z,97828.77
2017-11-14T18:43:02.347Z,97817.77
2017-11-14T18:45:28.773Z,97821.36
2017-11-14T18:47:55.117Z,97812.27
2017-11-14T18:50:21.502Z,97818.43
2017-11-14T18:52:48.195Z,97824.20
2017-11-14T18:55:14.498Z,97819.67
2017-11-14T18:57:40.906Z,97833.88
2017-11-14T19:00:07.220Z,97827.02
2017-11-14T19:02:33.535Z,97829.23
2017-11-14T19:05:00.143Z,97835.03
2017-11-14T19:07:26.419Z,97841.12
2017-11-14T19:09:52.786Z,97843.13
2017-11-14T19:12:19.214Z,97849.45
2017-11-14T19:14:45.599Z,97858.70
2017-11-14T19:17:12.440Z,97859.97
2017-11-14T19:19:38.998Z,97863.44
2017-11-14T19:22:11.837Z,97870.09
2017-11-14T19:24:39.709Z,97867.99
2017-11-14T19:27:06.250Z,97870.29
2017-11-14T19:29:32.801Z,97864.31
2017-11-14T19:31:59.441Z,97868.98
2017-11-14T19:34:26.915Z,97865.30
2017-11-14T19:36:53.692Z,97866.25
2017-11-14T19:39:21.230Z,97871.66
2017-11-14T19:41:48.234Z,97869.05
2017-11-14T19:44:15.145Z,97866.30
2017-11-14T19:46:41.981Z,97875.27
2017-11-14T19:49:08.523Z,97875.25
2017-11-14T19:51:35.282Z,97871.45
2017-11-14T19:54:01.676Z,97877.30
2017-11-14T19:56:28.176Z,97885.59
2017-11-14T19:58:54.633Z,97888.98
2017-11-14T20:01:21.142Z,97889.41
2017-11-14T20:03:48.134Z,97874.97
2017-11-14T20:16:02.504Z,97899.08
2017-11-14T20:18:29.058Z,97896.63
2017-11-14T20:20:55.459Z,97899.80
2017-11-14T20:23:22.110Z,97901.28
2017-11-14T20:25:49.779Z,97898.53
2017-11-14T20:28:16.672Z,97894.81
2017-11-14T20:30:43.126Z,97896.41
2017-11-14T20:33:10.393Z,97895.05
2017-11-14T20:35:36.837Z,97889.80
2017-11-14T20:38:03.422Z,97888.26
2017-11-14T20:40:30.492Z,97894.38
2017-11-14T20:42:56.926Z,97891.19
2017-11-14T20:45:23.412Z,97896.01
2017-11-14T20:47:50.630Z,97897.23
2017-11-14T20:50:16.947Z,97898.39
2017-11-14T20:52:43.712Z,97894.67
2017-11-14T20:55:10.005Z,97893.12
2017-11-14T20:57:36.232Z,97908.06
2017-11-14T21:00:02.949Z,97896.89
2017-11-14T21:02:29.195Z,97888.73
2017-11-14T21:04:55.844Z,97890.84
2017-11-14T21:07:22.048Z,97886.48
2017-11-14T21:09:48.257Z,97889.58
2017-11-14T21:12:16.268Z,97888.55
2017-11-14T21:14:42.473Z,97874.55
2017-11-14T21:17:08.680Z,97895.81
2017-11-14T21:19:35.280Z,97901.44
2017-11-14T21:22:02.045Z,97901.91
2017-11-14T21:24:28.246Z,97896.02
2017-11-14T21:26:54.813Z,97899.61
2017-11-14T21:29:20.922Z,97899.84
2017-11-14T21:31:47.053Z,97899.77
2017-11-14T21:34:13.811Z,97898.83
2017-11-14T21:36:39.939Z,97884.39
2017-11-14T21:39:06.056Z,97886.61
2017-11-14T21:41:32.593Z,97882.93
2017-11-14T21:44:01.949Z,97883.72
2017-11-14T21:46:28.289Z,97881.23
2017-11-14T21:48:54.997Z,97878.91
2017-11-14T21:51:21.231Z,97882.73
2017-11-14T21:53:47.347Z,97882.50
2017-11-14T21:56:13.538Z,97888.51
2017-11-14T21:58:40.905Z,97889.50
2017-11-14T22:01:07.435Z,97899.10
2017-11-14T22:03:33.580Z,97897.13
2017-11-14T22:06:00.546Z,97892.42
2017-11-14T22:08:26.716Z,97898.27
2017-11-14T22:10:52.881Z,97895.59
2017-11-14T22:13:19.419Z,97899.06
2017-11-14T22:15:45.569Z,97895.06
2017-11-14T22:18:11.725Z,97892.97
2017-11-14T22:20:38.283Z,97890.20
2017-11-14T22:23:04.438Z,97891.75
2017-11-14T22:25:30.629Z,97897.67
2017-11-14T22:27:56.806Z,97886.41
2017-11-14T22:30:23.015Z,97900.52
2017-11-14T22:32:49.603Z,97895.70
2017-11-14T22:35:15.832Z,97896.84
2017-11-14T22:37:41.979Z,97893.88
2017-11-14T22:40:08.129Z,97900.80
2017-11-14T22:42:34.297Z,97895.53
2017-11-14T22:45:00.751Z,97895.02
2017-11-14T22:47:26.981Z,97890.92
2017-11-14T22:49:53.125Z,97894.98
2017-11-14T22:52:19.317Z,97896.22
2017-11-14T22:54:45.499Z,97898.70
2017-11-14T22:57:12.072Z,97892.97
2017-11-14T22:59:38.143Z,97895.86
2017-11-14T23:02:04.320Z,97895.70
2017-11-14T23:04:30.566Z,97907.78
2017-11-14T23:06:56.804Z,97904.47
2017-11-14T23:09:23.313Z,97895.45
2017-11-14T23:11:49.517Z,97893.32
2017-11-14T23:14:15.683Z,97889.69
2017-11-14T23:16:42.210Z,97886.34
2017-11-14T23:19:08.332Z,97892.73
2017-11-14T23:21:34.513Z,97890.09
2017-11-14T23:24:00.751Z,97886.12
2017-11-14T23:26:26.884Z,97887.36
2017-11-14T23:28:53.443Z,97893.88
2017-11-14T23:31:19.588Z,97891.50
2017-11-14T23:33:45.730Z,97886.69
2017-11-14T23:36:11.892Z,97887.71
2017-11-14T23:38:37.997Z,97883.13
2017-11-14T23:41:04.483Z,97878.46
2017-11-14T23:43:30.616Z,97877.00
2017-11-14T23:45:56.777Z,97875.85
2017-11-14T23:48:23.409Z,97880.32
2017-11-14T23:50:49.542Z,97882.34
2017-11-14T23:53:15.691Z,97885.11
2017-11-14T23:55:41.898Z,97879.13
2017-11-14T23:58:08.030Z,97888.27
